createdAt,value
2019-04-04T00:02:56.369Z,1004.4
2019-04-04T00:08:25.399Z,1004.2
2019-04-04T00:13:56.323Z,1004.5
2019-04-04T00:19:27.796Z,1004.3
2019-04-04T00:24:57.952Z,1004
2019-04-04T00:30:28.859Z,1004
2019-04-04T00:36:00.620Z,1003.9
2019-04-04T00:41:30.531Z,1003.8
2019-04-04T00:47:01.671Z,1003.8
2019-04-04T00:52:32.200Z,1003.9
2019-04-04T00:58:03.073Z,1003.9
2019-04-04T01:03:33.893Z,1003.7
2019-04-04T01:09:04.830Z,1003.6
2019-04-04T01:14:35.588Z,1003.4
2019-04-04T01:20:06.501Z,1003.4
2019-04-04T01:25:37.280Z,1003.4
2019-04-04T01:31:08.179Z,1003.3
2019-04-04T01:36:39.039Z,1003.1
2019-04-04T01:42:09.930Z,1003
2019-04-04T01:47:40.718Z,1002.6
2019-04-04T01:53:11.604Z,1002.5
2019-04-04T01:58:42.474Z,1002.3
2019-04-04T02:04:13.264Z,1002
2019-04-04T02:09:44.141Z,1002.2
2019-04-04T02:15:15.164Z,1002
2019-04-04T02:20:45.893Z,1002
2019-04-04T02:26:16.788Z,1001.8
2019-04-04T02:31:47.584Z,1001.8
2019-04-04T02:37:20.460Z,1001.8
2019-04-04T02:42:49.342Z,1002.1
2019-04-04T02:48:23.120Z,1002.1
2019-04-04T02:53:52.844Z,1001.9
2019-04-04T02:59:22.175Z,1001.8
2019-04-04T03:04:52.728Z,1001.6
2019-04-04T03:10:23.659Z,1001.6
2019-04-04T03:15:54.460Z,1001.4
2019-04-04T03:21:25.329Z,1001.4
2019-04-04T03:26:56.208Z,1001.6
2019-04-04T03:32:26.986Z,1001.5
2019-04-04T03:37:57.872Z,1001.6
2019-04-04T03:43:28.655Z,1001.7
2019-04-04T03:48:59.544Z,1001.7
2019-04-04T03:54:30.416Z,1001.7
2019-04-04T04:00:05.493Z,1001.6
2019-04-04T04:05:35.376Z,1001.8
2019-04-04T04:11:05.733Z,1001.8
2019-04-04T04:16:35.815Z,1001.8
2019-04-04T04:22:04.625Z,1002
2019-04-04T04:27:35.432Z,1001.8
2019-04-04T04:33:06.442Z,1001.5
2019-04-04T04:38:37.288Z,1001.6
2019-04-04T04:44:08.064Z,1001.8
2019-04-04T04:49:38.955Z,1001.7
2019-04-04T04:55:11.934Z,1001.4
2019-04-04T05:00:40.602Z,1001.4
2019-04-04T05:06:11.480Z,1001.5
2019-04-04T05:11:42.316Z,1001.5
2019-04-04T05:17:13.104Z,1001.4
2019-04-04T05:22:44.023Z,1001.4
2019-04-04T05:28:14.839Z,1001.5
2019-04-04T05:33:45.648Z,1001.6
2019-04-04T05:39:17.990Z,1001.6
2019-04-04T05:44:47.336Z,1001.8
2019-04-04T05:50:18.168Z,1001.7
2019-04-04T05:55:48.990Z,1001.4
2019-04-04T06:01:19.868Z,1001.2
2019-04-04T06:06:50.761Z,1001.6
2019-04-04T06:12:22.933Z,1001.6
2019-04-04T06:17:52.516Z,1001.5
2019-04-04T06:23:25.017Z,1001.5
2019-04-04T06:28:54.293Z,1001.5
2019-04-04T06:34:25.118Z,1001.4
2019-04-04T06:39:58.366Z,1001.5
2019-04-04T06:45:29.557Z,1001.5
2019-04-04T06:50:57.861Z,1001.7
2019-04-04T06:56:31.729Z,1001.5
2019-04-04T07:01:59.636Z,1001.2
2019-04-04T07:07:30.568Z,1001.2
2019-04-04T07:13:14.726Z,1001.4
2019-04-04T07:18:32.396Z,1001.3
2019-04-04T07:24:03.279Z,1001.4
2019-04-04T07:29:34.212Z,1001.6
2019-04-04T07:35:05.056Z,1001.5
2019-04-04T07:40:36.989Z,1001.7
2019-04-04T07:46:15.946Z,1001.6
2019-04-04T07:51:38.660Z,1001.9
2019-04-04T07:57:08.606Z,1001.9
2019-04-04T08:02:39.488Z,1002.2
2019-04-04T08:08:10.410Z,1002.1
2019-04-04T08:13:41.307Z,1002.1
2019-04-04T08:19:12.250Z,1002
2019-04-04T08:24:43.233Z,1002.1
2019-04-04T08:30:14.139Z,1002.2
2019-04-04T08:35:45.031Z,1002.3
2019-04-04T08:41:15.973Z,1002.3
2019-04-04T08:46:47.113Z,1002.5
2019-04-04T08:52:20.615Z,1002.6
2019-04-04T08:57:48.913Z,1002.8
2019-04-04T09:03:20.633Z,1002.8
2019-04-04T09:08:50.826Z,1002.5
2019-04-04T09:14:21.805Z,1002.7
2019-04-04T09:19:52.739Z,1002.8
2019-04-04T09:25:23.740Z,1002.8
2019-04-04T09:30:54.750Z,1002.7
2019-04-04T09:36:25.762Z,1002.9
2019-04-04T09:41:56.895Z,1002.8
2019-04-04T09:47:28.062Z,1002.9
2019-04-04T09:52:59.497Z,1003.1
2019-04-04T09:58:30.585Z,1003.2
2019-04-04T10:04:01.645Z,1003.3
2019-04-04T10:09:32.930Z,1003.5
2019-04-04T10:15:04.058Z,1003.4
2019-04-04T10:20:35.652Z,1003.4
2019-04-04T10:25:58.493Z,1003.5
2019-04-04T10:31:22.234Z,1003.8
2019-04-04T10:36:52.420Z,1003.8
2019-04-04T10:42:23.840Z,1003.9
2019-04-04T10:47:46.774Z,1004.1
2019-04-04T10:53:17.862Z,1004.1
2019-04-04T10:58:44.329Z,1004.2
2019-04-04T11:04:09.192Z,1004
2019-04-04T11:09:41.593Z,1003.9
2019-04-04T11:15:02.241Z,1003.7
2019-04-04T11:20:28.476Z,1003.8
2019-04-04T11:26:00.202Z,1003.9
2019-04-04T11:31:24.838Z,1004
2019-04-04T11:36:56.662Z,1004.1
2019-04-04T11:42:28.338Z,1004.2
2019-04-04T11:47:53.665Z,1004.3
2019-04-04T11:53:23.833Z,1004.2
2019-04-04T11:58:55.469Z,1004.2
2019-04-04T12:04:27.147Z,1004.6
2019-04-04T12:10:07.044Z,1004.6
2019-04-04T12:15:24.995Z,1004.4
2019-04-04T12:20:56.159Z,1004.3
2019-04-04T12:26:27.459Z,1004.4
2019-04-04T12:31:51.642Z,1004.4
2019-04-04T12:37:15.237Z,1004.4
2019-04-04T12:42:47.073Z,1004.7
2019-04-04T12:48:18.091Z,1004.7
2019-04-04T12:53:42.013Z,1004.7
2019-04-04T12:59:13.604Z,1004.9
2019-04-04T13:04:45.321Z,1005
2019-04-04T13:10:16.769Z,1004.9
2019-04-04T13:15:48.526Z,1005
2019-04-04T13:21:21.554Z,1005.1
2019-04-04T13:26:51.892Z,1005.1
2019-04-04T13:32:14.864Z,1005.1
2019-04-04T13:37:46.399Z,1005.4
2019-04-04T13:43:18.156Z,1005.3
2019-04-04T13:48:43.494Z,1005.3
2019-04-04T13:54:14.327Z,1005.2
2019-04-04T13:59:39.388Z,1005.2
2019-04-04T14:05:09.475Z,1005.2
2019-04-04T14:10:27.980Z,1005.5
2019-04-04T14:15:59.170Z,1005.6
2019-04-04T14:21:23.006Z,1005.6
2019-04-04T14:26:46.518Z,1005.7
2019-04-04T14:32:17.573Z,1005.7
2019-04-04T14:37:40.386Z,1005.7
2019-04-04T14:43:11.459Z,1005.7
2019-04-04T14:48:35.081Z,1006.1
2019-04-04T14:54:06.214Z,1006.1
2019-04-04T14:59:28.951Z,1006.1
2019-04-04T15:05:00.051Z,1006.1
2019-04-04T15:10:25.487Z,1006
2019-04-04T15:15:56.523Z,1006
2019-04-04T15:21:23.269Z,1006
2019-04-04T15:26:54.383Z,1006
2019-04-04T15:32:18.487Z,1006.2
2019-04-04T15:37:49.592Z,1006.3
2019-04-04T15:43:13.389Z,1006.3
2019-04-04T15:48:44.459Z,1006.4
2019-04-04T15:54:10.748Z,1006.4
2019-04-04T15:59:41.932Z,1006.5
2019-04-04T16:05:06.995Z,1006.6
2019-04-04T16:10:38.106Z,1006.6
2019-04-04T16:16:09.044Z,1006.8
2019-04-04T16:21:35.702Z,1006.8
2019-04-04T16:27:06.792Z,1006.8
2019-04-04T16:32:37.818Z,1006.9
2019-04-04T16:38:03.599Z,1007
2019-04-04T16:43:34.660Z,1006.9
2019-04-04T16:49:05.758Z,1007.1
2019-04-04T16:54:29.617Z,1007.4
2019-04-04T17:00:00.641Z,1007.5
2019-04-04T17:05:23.871Z,1007.4
2019-04-04T17:10:54.853Z,1007.2
2019-04-04T17:16:25.868Z,1007.3
2019-04-04T17:21:56.801Z,1007.3
2019-04-04T17:27:22.445Z,1007.4
2019-04-04T17:32:53.460Z,1007.4
2019-04-04T17:38:24.349Z,1007.4
2019-04-04T17:43:47.368Z,1007.5
2019-04-04T17:49:18.064Z,1007.8
2019-04-04T17:54:49.096Z,1007.7
2019-04-04T18:00:19.947Z,1007.6
2019-04-04T18:05:50.953Z,1007.6
2019-04-04T18:11:15.766Z,1007.8
2019-04-04T18:16:46.658Z,1007.8
2019-04-04T18:22:18.516Z,1007.9
2019-04-04T18:27:48.493Z,1007.9
2019-04-04T18:33:19.928Z,1008
2019-04-04T18:38:50.405Z,1008.1
2019-04-04T18:44:13.837Z,1008.1
2019-04-04T18:49:44.665Z,1008.2
2019-04-04T18:55:19.802Z,1008.4
2019-04-04T19:00:46.564Z,1008.4
2019-04-04T19:06:17.458Z,1008.2
2019-04-04T19:11:48.401Z,1008.2
2019-04-04T19:17:19.304Z,1008.2
2019-04-04T19:22:50.189Z,1008.4
2019-04-04T19:28:21.139Z,1008.5
2019-04-04T19:33:52.056Z,1008.5
2019-04-04T19:39:22.918Z,1008.3
2019-04-04T19:44:53.357Z,1008.4
2019-04-04T19:50:19.790Z,1008.4
2019-04-04T19:55:51.241Z,1008.4
2019-04-04T20:01:21.621Z,1008.4
2019-04-04T20:06:52.450Z,1008.4
2019-04-04T20:12:23.342Z,1008.4
2019-04-04T20:17:54.249Z,1008.3
2019-04-04T20:23:25.162Z,1008.5
2019-04-04T20:28:56.092Z,1008.4
2019-04-04T20:34:26.889Z,1008.3
2019-04-04T20:39:57.774Z,1008.5
2019-04-04T20:45:28.602Z,1008.6
2019-04-04T20:50:59.420Z,1008.9
2019-04-04T20:56:31.015Z,1008.9
2019-04-04T21:02:02.642Z,1009
2019-04-04T21:07:34.264Z,1008.9
2019-04-04T21:13:05.503Z,1008.9
2019-04-04T21:18:36.299Z,1008.9
2019-04-04T21:24:07.107Z,1009
2019-04-04T21:29:37.841Z,1009
2019-04-04T21:35:08.633Z,1009.1
2019-04-04T21:40:39.421Z,1009.2
2019-04-04T21:46:10.194Z,1009.1
2019-04-04T21:51:40.930Z,1009.1
2019-04-04T21:57:11.651Z,1009.1
2019-04-04T22:02:42.486Z,1009.1
2019-04-04T22:08:13.159Z,1009.1
2019-04-04T22:13:43.963Z,1009
2019-04-04T22:19:14.781Z,1009.1
2019-04-04T22:24:45.555Z,1009.1
2019-04-04T22:30:16.853Z,1009
2019-04-04T22:35:48.399Z,1009.2
2019-04-04T22:41:20.020Z,1009.2
2019-04-04T22:46:51.731Z,1009.2
2019-04-04T22:52:23.357Z,1009.2
2019-04-04T22:57:54.940Z,1009.1
2019-04-04T23:03:28.430Z,1009.2
2019-04-04T23:08:58.084Z,1009.3
2019-04-04T23:14:29.711Z,1009.2
2019-04-04T23:20:01.285Z,1009.2
2019-04-04T23:25:32.884Z,1009.3
2019-04-04T23:31:04.402Z,1009.1
2019-04-04T23:36:36.044Z,1009.1
2019-04-04T23:42:07.332Z,1009
2019-04-04T23:47:42.944Z,1008.8
2019-04-04T23:53:08.882Z,1008.8
2019-04-04T23:58:40.180Z,1008.9
